Time;durP1;ratioP1;P1;durP2;ratioP2;P2;SDS_P1;SDS_P2;PMS_P1;PMS_P2;Temp;Humidity;BMP_temperature;BMP_pressure;BME280_temperature;BME280_humidity;BME280_pressure;Samples;Min_cycle;Max_cycle;Signal;HPM_P1;HPM_P2
2023/11/11 00:00:28;;;;;;;;;;;;;;;15.04;44.52;100190.72;5092283;28;1142;-48
2023/11/11 00:02:55;;;;;;;;;;;;;;;14.94;44.39;100198.13;5090987;28;1063;-44
2023/11/11 00:05:22;;;;;;;;;;;;;;;14.89;44.44;100188.81;5083206;28;2286;-47
2023/11/11 00:07:47;;;;;;;;;;;;;;;14.93;44.19;100197.31;5091585;28;1067;-47
2023/11/11 00:10:13;;;;;;;;;;;;;;;15.87;46.37;100212.38;5098501;28;1124;-45
2023/11/11 00:12:39;;;;;;;;;;;;;;;15.35;46.98;100209.81;5098596;28;1913;-42
2023/11/11 00:15:05;;;;;;;;;;;;;;;15.28;46.39;100183.78;5085324;28;1043;-47
2023/11/11 00:17:31;;;;;;;;;;;;;;;15.19;45.45;100189.03;5096233;28;1094;-44
2023/11/11 00:19:59;;;;;;;;;;;;;;;15.05;45.28;100184.16;5078939;28;1139;-47
2023/11/11 00:22:25;;;;;;;;;;;;;;;15.04;45.17;100201.69;5078365;28;1161;-43
2023/11/11 00:24:50;;;;;;;;;;;;;;;14.95;44.69;100194.31;5098222;28;1043;-43
2023/11/11 00:27:16;;;;;;;;;;;;;;;14.90;44.64;100203.34;5098530;28;1049;-47
2023/11/11 00:29:42;;;;;;;;;;;;;;;15.21;45.28;100197.81;5064729;28;1095;-43
2023/11/11 00:32:07;;;;;;;;;;;;;;;15.67;46.98;100194.03;5056547;28;1971;-44
2023/11/11 00:34:34;;;;;;;;;;;;;;;15.25;46.83;100179.72;5066298;28;1856;-45
2023/11/11 00:37:00;;;;;;;;;;;;;;;15.14;46.18;100180.84;5091930;28;1143;-44
2023/11/11 00:39:26;;;;;;;;;;;;;;;15.02;45.79;100160.03;5079157;28;976;-46
2023/11/11 00:41:52;;;;;;;;;;;;;;;15.08;45.29;100176.47;5077947;28;1091;-46
2023/11/11 00:44:21;;;;;;;;;;;;;;;14.94;44.91;100155.16;5090916;28;1066;-43
2023/11/11 00:46:46;;;;;;;;;;;;;;;15.01;44.62;100144.75;5090313;28;1114;-44
2023/11/11 00:49:12;;;;;;;;;;;;;;;14.99;44.44;100146.09;5084338;28;1126;-41
2023/11/11 00:51:39;;;;;;;;;;;;;;;14.97;44.32;100148.28;5097964;28;2054;-42
2023/11/11 00:54:05;;;;;;;;;;;;;;;15.78;46.34;100153.72;5073420;28;1647;-39
2023/11/11 00:56:31;;;;;;;;;;;;;;;15.50;46.80;100142.34;5078109;28;995;-40
2023/11/11 00:58:57;;;;;;;;;;;;;;;15.22;46.48;100145.50;5083581;28;1518;-46
2023/11/11 01:01:23;;;;;;;;;;;;;;;15.17;45.81;100141.94;5097724;28;1053;-41
2023/11/11 01:03:48;;;;;;;;;;;;;;;15.14;45.32;100137.03;5077797;28;2309;-42
2023/11/11 01:06:14;;;;;;;;;;;;;;;15.23;45.90;100119.75;5088445;28;950;-44
2023/11/11 01:08:40;;;;;;;;;;;;;;;15.52;47.33;100105.34;5083912;28;1101;-45
2023/11/11 01:11:06;;;;;;;;;;;;;;;15.36;46.40;100112.00;5079184;28;1075;-42
2023/11/11 01:13:35;;;;;;;;;;;;;;;15.29;45.77;100115.06;5067619;28;1989;-43
2023/11/11 01:16:04;;;;;;;;;;;;;;;15.13;45.63;100105.25;5059406;28;1556;-43
2023/11/11 01:18:30;;;;;;;;;;;;;;;15.07;45.02;100099.00;5088569;28;1226;-42
2023/11/11 01:20:58;;;;;;;;;;;;;;;15.05;44.76;100101.19;5097491;28;1054;-40
2023/11/11 01:23:24;;;;;;;;;;;;;;;15.67;46.29;100104.44;5097028;28;1038;-44
2023/11/11 01:25:49;;;;;;;;;;;;;;;15.27;46.47;100119.19;5065776;28;1118;-43
2023/11/11 01:28:16;;;;;;;;;;;;;;;15.84;46.92;100106.00;5078937;28;1360;-44
2023/11/11 01:30:42;;;;;;;;;;;;;;;16.00;47.64;100103.97;5094227;28;861;-47
2023/11/11 01:33:07;;;;;;;;;;;;;;;15.56;47.50;100103.69;5077972;28;2328;-43
2023/11/11 01:35:33;;;;;;;;;;;;;;;15.39;46.60;100100.50;5076661;28;1043;-40
2023/11/11 01:37:58;;;;;;;;;;;;;;;15.37;45.90;100103.50;5090800;28;1011;-48
2023/11/11 01:40:24;;;;;;;;;;;;;;;15.33;45.07;100087.91;5090171;28;1153;-46
2023/11/11 01:42:49;;;;;;;;;;;;;;;15.24;44.86;100079.47;5096055;28;1086;-43
2023/11/11 01:45:15;;;;;;;;;;;;;;;15.15;44.48;100079.25;5084157;28;1006;-47
2023/11/11 01:47:41;;;;;;;;;;;;;;;15.11;44.49;100082.81;5083275;28;1026;-45
2023/11/11 01:50:07;;;;;;;;;;;;;;;15.81;46.61;100081.88;5078480;28;1082;-44
2023/11/11 01:52:32;;;;;;;;;;;;;;;15.37;46.67;100064.34;5071631;28;1894;-41
2023/11/11 01:54:58;;;;;;;;;;;;;;;15.43;46.57;100078.81;5076106;28;1087;-47
2023/11/11 01:57:24;;;;;;;;;;;;;;;15.74;47.09;100063.00;5083174;28;1172;-42
2023/11/11 01:59:49;;;;;;;;;;;;;;;15.46;46.80;100068.13;5065287;28;1126;-47
2023/11/11 02:02:15;;;;;;;;;;;;;;;15.43;45.67;100051.41;5065312;28;1199;-43
2023/11/11 02:04:41;;;;;;;;;;;;;;;15.32;45.47;100042.44;5096978;28;2532;-45
2023/11/11 02:07:06;;;;;;;;;;;;;;;15.17;45.05;100046.09;5077662;28;1110;-43
2023/11/11 02:09:32;;;;;;;;;;;;;;;15.21;44.71;100034.28;5083322;28;1097;-43
2023/11/11 02:11:57;;;;;;;;;;;;;;;15.08;44.53;100026.69;5071704;28;1898;-43
2023/11/11 02:14:23;;;;;;;;;;;;;;;15.15;44.62;100015.44;5075950;28;1034;-42
2023/11/11 02:16:49;;;;;;;;;;;;;;;15.87;46.70;100025.94;5071455;28;1213;-44
2023/11/11 02:19:14;;;;;;;;;;;;;;;15.43;46.64;100024.03;5079804;28;865;-45
2023/11/11 02:21:41;;;;;;;;;;;;;;;15.34;45.78;100023.81;5078573;28;1206;-46
2023/11/11 02:24:07;;;;;;;;;;;;;;;15.31;45.14;100010.69;5082465;28;1065;-42
2023/11/11 02:26:32;;;;;;;;;;;;;;;15.16;45.11;100008.84;5071170;28;1035;-42
2023/11/11 02:28:58;;;;;;;;;;;;;;;15.15;44.86;100018.16;5076399;28;1451;-45
2023/11/11 02:31:23;;;;;;;;;;;;;;;16.01;46.83;100029.63;5086741;28;1294;-48
2023/11/11 02:33:49;;;;;;;;;;;;;;;15.47;47.08;100017.69;5082882;28;1986;-46
2023/11/11 02:36:14;;;;;;;;;;;;;;;15.42;46.24;100020.47;5095919;28;1091;-44
2023/11/11 02:38:40;;;;;;;;;;;;;;;15.29;45.74;100021.94;5064831;28;1206;-42
2023/11/11 02:41:05;;;;;;;;;;;;;;;15.21;45.22;100006.09;5072394;28;1230;-42
2023/11/11 02:43:31;;;;;;;;;;;;;;;15.16;44.67;99993.22;5062961;28;844;-45
2023/11/11 02:45:56;;;;;;;;;;;;;;;15.13;44.57;99999.28;5089307;28;1046;-47
2023/11/11 02:48:22;;;;;;;;;;;;;;;15.03;44.29;99997.41;5069870;28;1051;-43
2023/11/11 02:50:47;;;;;;;;;;;;;;;15.01;44.09;99998.78;5096101;28;1015;-45
2023/11/11 02:53:13;;;;;;;;;;;;;;;14.91;44.20;99991.44;5095820;28;1942;-45
2023/11/11 02:55:38;;;;;;;;;;;;;;;14.91;44.21;99996.91;5064885;28;1059;-41
2023/11/11 02:58:04;;;;;;;;;;;;;;;14.89;44.23;99999.94;5078001;28;1316;-45
2023/11/11 03:00:29;;;;;;;;;;;;;;;14.85;44.12;99998.88;5095986;28;1050;-47
2023/11/11 03:02:55;;;;;;;;;;;;;;;14.83;44.04;100000.25;5095923;28;880;-42
2023/11/11 03:05:20;;;;;;;;;;;;;;;15.35;44.79;100009.03;5076869;28;2130;-43
2023/11/11 03:07:46;;;;;;;;;;;;;;;15.64;46.81;100000.88;5095426;28;847;-40
2023/11/11 03:10:11;;;;;;;;;;;;;;;16.19;47.23;100002.63;5082300;28;1145;-42
2023/11/11 03:12:37;;;;;;;;;;;;;;;16.98;47.65;100006.94;5065143;28;1913;-43
2023/11/11 03:15:03;;;;;;;;;;;;;;;16.29;48.67;99999.75;5070643;28;1118;-42
2023/11/11 03:17:29;;;;;;;;;;;;;;;15.92;48.02;100003.94;5088121;28;1063;-45
2023/11/11 03:19:54;;;;;;;;;;;;;;;15.73;47.28;100001.88;5081870;28;1054;-44
2023/11/11 03:22:20;;;;;;;;;;;;;;;15.69;46.39;99989.03;5095555;28;1050;-44
2023/11/11 03:24:45;;;;;;;;;;;;;;;15.55;45.88;99980.66;5076564;28;1002;-46
2023/11/11 03:27:11;;;;;;;;;;;;;;;15.44;45.43;99982.66;5087643;28;1077;-46
2023/11/11 03:29:37;;;;;;;;;;;;;;;15.45;45.34;99980.75;5085349;28;1201;-44
2023/11/11 03:32:02;;;;;;;;;;;;;;;15.30;45.30;99966.03;5069112;28;1909;-46
2023/11/11 03:34:28;;;;;;;;;;;;;;;15.26;45.06;99973.19;5079173;28;1825;-43
2023/11/11 03:36:54;;;;;;;;;;;;;;;15.21;44.73;99975.97;5079340;28;1090;-43
2023/11/11 03:39:19;;;;;;;;;;;;;;;15.22;44.66;99972.94;5065787;28;1329;-43
2023/11/11 03:41:45;;;;;;;;;;;;;;;15.17;44.47;99977.63;5099285;28;1057;-42
2023/11/11 03:44:11;;;;;;;;;;;;;;;15.17;44.34;99966.69;5080380;28;861;-42
2023/11/11 03:46:36;;;;;;;;;;;;;;;15.04;44.29;99947.03;5099062;28;1057;-43
2023/11/11 03:49:02;;;;;;;;;;;;;;;15.12;44.29;99947.53;5086188;28;1166;-43
2023/11/11 03:51:27;;;;;;;;;;;;;;;15.01;44.22;99949.50;5081113;28;1107;-43
2023/11/11 03:53:53;;;;;;;;;;;;;;;14.97;44.14;99946.53;5085419;28;1930;-40
2023/11/11 03:56:19;;;;;;;;;;;;;;;15.02;44.16;99943.75;5078970;28;855;-44
2023/11/11 03:58:45;;;;;;;;;;;;;;;14.92;44.29;99943.00;5083873;28;1050;-46
2023/11/11 04:01:11;;;;;;;;;;;;;;;14.85;44.16;99948.78;5080618;28;1559;-44
2023/11/11 04:03:39;;;;;;;;;;;;;;;14.92;44.22;99946.56;5093739;28;1911;-40
2023/11/11 04:06:05;;;;;;;;;;;;;;;14.80;44.15;99932.38;5079153;28;1190;-47
2023/11/11 04:08:34;;;;;;;;;;;;;;;14.73;44.19;99934.63;5085279;28;1078;-47
2023/11/11 04:10:59;;;;;;;;;;;;;;;14.80;44.11;99940.59;5085968;28;994;-50
2023/11/11 04:13:27;;;;;;;;;;;;;;;15.04;44.72;99930.63;5073923;28;1909;-42
2023/11/11 04:15:53;;;;;;;;;;;;;;;15.72;47.03;99939.97;5073276;28;1205;-46
2023/11/11 04:18:18;;;;;;;;;;;;;;;15.34;47.13;99939.69;5076459;28;1535;-44
2023/11/11 04:20:44;;;;;;;;;;;;;;;15.19;46.28;99943.38;5060353;28;1417;-48
2023/11/11 04:23:10;;;;;;;;;;;;;;;15.02;45.79;99927.31;5091917;28;1055;-46
2023/11/11 04:25:35;;;;;;;;;;;;;;;15.01;45.48;99935.81;5060571;28;1079;-41
2023/11/11 04:28:01;;;;;;;;;;;;;;;14.93;45.11;99929.03;5096736;28;1050;-45
2023/11/11 04:30:26;;;;;;;;;;;;;;;14.93;44.89;99928.22;5088032;28;1336;-48
2023/11/11 04:32:52;;;;;;;;;;;;;;;14.92;44.48;99930.13;5079743;28;1987;-47
2023/11/11 04:35:17;;;;;;;;;;;;;;;15.18;45.53;99930.78;5078074;28;2196;-46
2023/11/11 04:37:43;;;;;;;;;;;;;;;15.62;46.87;99929.06;5096222;28;1031;-42
2023/11/11 04:40:10;;;;;;;;;;;;;;;15.20;46.84;99914.06;5086662;28;1023;-49
2023/11/11 04:42:35;;;;;;;;;;;;;;;15.13;46.12;99899.88;5093216;28;1209;-45
2023/11/11 04:45:01;;;;;;;;;;;;;;;15.02;45.47;99904.63;5089308;28;1102;-45
2023/11/11 04:47:27;;;;;;;;;;;;;;;14.97;45.38;99902.75;5092779;28;998;-47
2023/11/11 04:49:52;;;;;;;;;;;;;;;14.94;44.96;99899.75;5078104;28;1042;-46
2023/11/11 04:52:18;;;;;;;;;;;;;;;14.85;44.95;99908.53;5095718;28;1909;-50
2023/11/11 04:54:43;;;;;;;;;;;;;;;16.01;46.59;99908.19;5094520;28;1090;-50
2023/11/11 04:57:09;;;;;;;;;;;;;;;15.47;47.14;99902.59;5090243;28;971;-49
2023/11/11 04:59:35;;;;;;;;;;;;;;;15.31;46.53;99906.59;5077068;28;1014;-48
2023/11/11 05:02:01;;;;;;;;;;;;;;;15.11;46.13;99902.09;5081461;28;1082;-48
2023/11/11 05:04:27;;;;;;;;;;;;;;;15.16;45.40;99907.53;5096759;28;2112;-46
2023/11/11 05:06:52;;;;;;;;;;;;;;;15.12;44.98;99914.69;5096176;28;1110;-48
2023/11/11 05:09:22;;;;;;;;;;;;;;;14.97;44.90;99910.94;5085619;28;1034;-48
2023/11/11 05:11:48;;;;;;;;;;;;;;;14.95;44.77;99906.84;5082834;28;1968;-51
2023/11/11 05:14:17;;;;;;;;;;;;;;;15.93;46.52;99920.59;5097615;28;1025;-49
2023/11/11 05:16:50;;;;;;;;;;;;;;;15.48;47.07;99917.16;5097678;28;1146;-49
2023/11/11 05:19:17;;;;;;;;;;;;;;;15.26;46.25;99925.81;5091731;28;1026;-47
2023/11/11 05:21:43;;;;;;;;;;;;;;;15.22;45.73;99928.28;5096899;28;1010;-48
2023/11/11 05:24:08;;;;;;;;;;;;;;;15.03;45.70;99936.38;5097079;28;998;-54
2023/11/11 05:26:34;;;;;;;;;;;;;;;15.10;45.13;99938.81;5084043;28;1023;-55
2023/11/11 05:29:00;;;;;;;;;;;;;;;15.01;44.65;99942.13;5096820;28;1010;-49
2023/11/11 05:31:27;;;;;;;;;;;;;;;15.31;44.83;99939.47;5089800;28;995;-51
2023/11/11 05:33:53;;;;;;;;;;;;;;;16.67;42.39;99931.25;5083770;28;1975;-46
2023/11/11 05:36:19;;;;;;;;;;;;;;;17.40;41.12;99931.88;5089840;28;1093;-46
2023/11/11 05:38:45;;;;;;;;;;;;;;;16.55;43.07;99933.59;5077701;28;991;-55
2023/11/11 05:41:11;;;;;;;;;;;;;;;16.11;44.32;99935.47;5083492;28;1121;-51
2023/11/11 05:43:36;;;;;;;;;;;;;;;17.42;41.78;99939.81;5097109;28;1026;-52
2023/11/11 05:46:02;;;;;;;;;;;;;;;16.67;43.90;99935.94;5083029;28;1081;-52
2023/11/11 05:48:28;;;;;;;;;;;;;;;16.19;44.90;99940.31;5083573;28;1027;-51
2023/11/11 05:50:53;;;;;;;;;;;;;;;17.37;42.54;99937.94;5076327;28;996;-51
2023/11/11 05:53:19;;;;;;;;;;;;;;;16.99;43.60;99937.19;5076333;28;1976;-49
2023/11/11 05:55:45;;;;;;;;;;;;;;;16.45;45.21;99936.47;5095753;28;1174;-53
2023/11/11 05:58:11;;;;;;;;;;;;;;;16.91;44.27;99927.66;5096683;28;1172;-50
2023/11/11 06:00:38;;;;;;;;;;;;;;;17.09;43.76;99926.84;5083090;28;1138;-51
2023/11/11 06:03:04;;;;;;;;;;;;;;;16.55;45.20;99925.34;5096732;28;2408;-51
2023/11/11 06:05:30;;;;;;;;;;;;;;;16.27;46.15;99916.09;5077043;28;1268;-49
2023/11/11 06:07:55;;;;;;;;;;;;;;;16.40;46.34;99916.22;5088786;28;1015;-49
2023/11/11 06:10:21;;;;;;;;;;;;;;;17.58;43.67;99910.94;5095240;28;1100;-49
2023/11/11 06:12:47;;;;;;;;;;;;;;;16.74;45.68;99912.47;5077943;28;1901;-48
2023/11/11 06:15:13;;;;;;;;;;;;;;;16.42;46.65;99921.41;5082817;28;1050;-48
2023/11/11 06:17:38;;;;;;;;;;;;;;;16.22;47.22;99919.72;5084224;28;1006;-46
2023/11/11 06:20:05;;;;;;;;;;;;;;;16.79;46.34;99927.25;5082090;28;1054;-48
2023/11/11 06:22:32;;;;;;;;;;;;;;;16.82;46.31;99926.69;5079675;28;1074;-48
2023/11/11 06:24:58;;;;;;;;;;;;;;;16.35;47.53;99918.22;5089762;28;1085;-46
2023/11/11 06:27:23;;;;;;;;;;;;;;;16.52;47.20;99909.47;5085131;28;1074;-51
2023/11/11 06:29:49;;;;;;;;;;;;;;;17.49;44.96;99899.03;5082642;28;1181;-51
2023/11/11 06:32:14;;;;;;;;;;;;;;;16.71;46.92;99899.34;5086500;28;1972;-47
2023/11/11 06:34:41;;;;;;;;;;;;;;;16.39;47.81;99892.63;5087214;28;2225;-51
2023/11/11 06:37:06;;;;;;;;;;;;;;;16.33;48.06;99896.56;5085466;28;1110;-48
2023/11/11 06:39:33;;;;;;;;;;;;;;;17.57;45.32;99892.00;5089798;28;1105;-47
2023/11/11 06:41:59;;;;;;;;;;;;;;;16.84;46.97;99869.53;5076225;28;1137;-48
2023/11/11 06:44:24;;;;;;;;;;;;;;;16.51;47.73;99870.25;5085209;28;1050;-48
2023/11/11 06:46:50;;;;;;;;;;;;;;;16.26;48.60;99871.41;5075832;28;1003;-46
2023/11/11 06:49:16;;;;;;;;;;;;;;;16.17;48.84;99881.38;5095141;28;1090;-50
2023/11/11 06:51:42;;;;;;;;;;;;;;;17.43;46.08;99892.78;5087526;28;1086;-49
2023/11/11 06:54:09;;;;;;;;;;;;;;;17.12;46.63;99886.97;5088807;28;1982;-49
2023/11/11 06:56:35;;;;;;;;;;;;;;;16.61;48.08;99894.00;5086140;28;888;-47
2023/11/11 06:59:00;;;;;;;;;;;;;;;16.40;48.57;99888.78;5082279;28;1049;-48
2023/11/11 07:01:26;;;;;;;;;;;;;;;16.25;49.30;99895.25;5095991;28;1003;-47
2023/11/11 07:03:51;;;;;;;;;;;;;;;17.59;46.12;99884.28;5084043;28;2261;-48
2023/11/11 07:06:22;;;;;;;;;;;;;;;16.94;47.36;99869.38;5099777;28;1029;-43
2023/11/11 07:08:48;;;;;;;;;;;;;;;16.54;48.69;99868.84;5090924;28;1027;-43
2023/11/11 07:11:15;;;;;;;;;;;;;;;16.32;49.05;99862.00;5090310;28;1158;-50
2023/11/11 07:13:41;;;;;;;;;;;;;;;16.84;47.98;99872.28;5082607;28;1890;-46
2023/11/11 07:16:08;;;;;;;;;;;;;;;17.34;46.85;99869.84;5100324;28;1178;-45
2023/11/11 07:18:35;;;;;;;;;;;;;;;16.75;48.53;99866.63;5093681;28;1074;-50
2023/11/11 07:21:01;;;;;;;;;;;;;;;16.49;48.95;99863.44;5088973;28;1109;-48
2023/11/11 07:23:27;;;;;;;;;;;;;;;16.32;49.53;99859.25;5099650;28;1070;-47
2023/11/11 07:25:54;;;;;;;;;;;;;;;16.69;48.61;99849.44;5083654;28;1069;-45
2023/11/11 07:28:19;;;;;;;;;;;;;;;17.53;46.73;99842.31;5079039;28;1031;-46
2023/11/11 07:30:45;;;;;;;;;;;;;;;16.80;48.58;99838.28;5081620;28;1087;-43
2023/11/11 07:33:10;;;;;;;;;;;;;;;16.52;49.21;99847.19;5094265;28;2305;-45
2023/11/11 07:35:36;;;;;;;;;;;;;;;16.39;49.79;99847.91;5092532;28;1103;-48
2023/11/11 07:38:04;;;;;;;;;;;;;;;17.39;47.20;99830.47;5079552;28;1015;-45
2023/11/11 07:40:29;;;;;;;;;;;;;;;16.89;48.53;99823.59;5093178;28;1037;-45
2023/11/11 07:42:57;;;;;;;;;;;;;;;16.55;49.38;99830.13;5092018;28;1205;-43
2023/11/11 07:45:24;;;;;;;;;;;;;;;16.38;50.01;99819.69;5092636;28;1011;-45
2023/11/11 07:47:50;;;;;;;;;;;;;;;17.19;47.94;99826.16;5091267;28;998;-48
2023/11/11 07:50:19;;;;;;;;;;;;;;;16.89;48.50;99822.81;5093399;28;1015;-44
2023/11/11 07:52:45;;;;;;;;;;;;;;;16.51;49.57;99823.59;5099000;28;1901;-46
2023/11/11 07:55:10;;;;;;;;;;;;;;;16.37;49.96;99817.22;5097507;28;1220;-46
2023/11/11 07:57:36;;;;;;;;;;;;;;;17.04;48.61;99808.81;5085543;28;841;-44
2023/11/11 08:00:05;;;;;;;;;;;;;;;17.03;48.69;99814.63;5093470;28;1042;-45
2023/11/11 08:02:33;;;;;;;;;;;;;;;16.54;49.94;99806.53;5099263;28;1101;-44
2023/11/11 08:04:58;;;;;;;;;;;;;;;17.49;47.73;99802.00;5085016;28;2534;-45
2023/11/11 08:07:24;;;;;;;;;;;;;;;16.82;49.25;99806.69;5089716;28;1150;-42
2023/11/11 08:09:52;;;;;;;;;;;;;;;16.55;49.93;99807.34;5078862;28;891;-48
2023/11/11 08:12:18;;;;;;;;;;;;;;;16.38;50.32;99814.19;5078747;28;1983;-48
2023/11/11 08:14:44;;;;;;;;;;;;;;;16.24;50.78;99818.75;5079656;28;1043;-49
2023/11/11 08:17:10;;;;;;;;;;;;;;;17.23;48.60;99832.69;5085730;28;1003;-45
2023/11/11 08:19:35;;;;;;;;;;;;;;;16.99;48.94;99844.59;5085692;28;1030;-49
2023/11/11 08:22:03;;;;;;;;;;;;;;;16.56;50.10;99836.44;5069342;28;1166;-46
2023/11/11 08:24:29;;;;;;;;;;;;;;;16.37;50.92;99830.94;5091783;28;987;-44
2023/11/11 08:26:56;;;;;;;;;;;;;;;16.23;51.23;99831.66;5098526;28;1248;-46
2023/11/11 08:29:25;;;;;;;;;;;;;;;17.33;48.33;99815.19;5084257;28;1395;-44
2023/11/11 08:31:50;;;;;;;;;;;;;;;16.70;50.13;99809.06;5084847;28;1905;-45
2023/11/11 08:34:16;;;;;;;;;;;;;;;16.42;50.87;99815.22;5089693;28;2481;-47
2023/11/11 08:36:41;;;;;;;;;;;;;;;16.25;51.52;99803.94;5084149;28;1030;-46
2023/11/11 08:39:07;;;;;;;;;;;;;;;16.54;50.86;99786.53;5088499;28;1026;-46
2023/11/11 08:41:33;;;;;;;;;;;;;;;17.36;48.78;99785.19;5070732;28;1046;-42
2023/11/11 08:43:58;;;;;;;;;;;;;;;16.69;50.36;99793.69;5091424;28;1127;-48
2023/11/11 08:46:24;;;;;;;;;;;;;;;16.46;51.02;99788.00;5086133;28;879;-50
2023/11/11 08:48:51;;;;;;;;;;;;;;;17.02;50.01;99777.28;5091240;28;1129;-49
2023/11/11 08:51:17;;;;;;;;;;;;;;;17.17;49.51;99778.97;5087622;28;1015;-45
2023/11/11 08:53:42;;;;;;;;;;;;;;;16.69;50.55;99769.00;5063261;28;1918;-48
2023/11/11 08:56:08;;;;;;;;;;;;;;;16.45;51.27;99758.13;5078086;28;1054;-49
2023/11/11 08:58:33;;;;;;;;;;;;;;;16.33;51.78;99740.19;5080233;28;917;-42
2023/11/11 09:00:59;;;;;;;;;;;;;;;16.51;51.33;99730.31;5078008;28;1066;-43
2023/11/11 09:03:26;;;;;;;;;;;;;;;17.59;48.53;99731.16;5090299;28;2423;-44
2023/11/11 09:05:51;;;;;;;;;;;;;;;16.82;50.69;99734.50;5085360;28;1230;-41
2023/11/11 09:08:17;;;;;;;;;;;;;;;16.54;51.31;99745.38;5077332;28;1015;-46
2023/11/11 09:10:43;;;;;;;;;;;;;;;16.40;51.98;99746.09;5096331;28;911;-44
2023/11/11 09:13:10;;;;;;;;;;;;;;;17.23;49.96;99745.56;5089710;28;1902;-44
2023/11/11 09:15:37;;;;;;;;;;;;;;;17.18;49.94;99737.44;5077805;28;1042;-41
2023/11/11 09:18:03;;;;;;;;;;;;;;;16.70;50.98;99743.97;5067638;28;1107;-42
2023/11/11 09:20:29;;;;;;;;;;;;;;;16.48;51.82;99744.63;5082309;28;1042;-45
2023/11/11 09:22:55;;;;;;;;;;;;;;;17.56;49.00;99730.97;5089356;28;1110;-46
2023/11/11 09:25:21;;;;;;;;;;;;;;;16.99;50.21;99737.50;5076988;28;996;-48
2023/11/11 09:27:47;;;;;;;;;;;;;;;16.65;51.23;99722.13;5077130;28;1074;-44
2023/11/11 09:30:13;;;;;;;;;;;;;;;16.41;51.98;99714.81;5090354;28;1126;-45
2023/11/11 09:32:38;;;;;;;;;;;;;;;17.07;50.48;99703.03;5084005;28;1980;-41
2023/11/11 09:35:04;;;;;;;;;;;;;;;16.64;51.46;99708.69;5091407;28;2713;-46
2023/11/11 09:37:30;;;;;;;;;;;;;;;16.41;51.95;99703.84;5096401;28;1276;-46
2023/11/11 09:39:55;;;;;;;;;;;;;;;16.30;52.08;99696.88;5094559;28;1189;-46
2023/11/11 09:42:21;;;;;;;;;;;;;;;16.26;52.58;99695.84;5096334;28;1038;-49
2023/11/11 09:44:46;;;;;;;;;;;;;;;17.54;49.07;99681.75;5088767;28;1201;-47
2023/11/11 09:47:13;;;;;;;;;;;;;;;16.80;51.10;99684.53;5083534;28;1200;-44
2023/11/11 09:49:38;;;;;;;;;;;;;;;16.51;51.63;99685.56;5068969;28;1185;-47
2023/11/11 09:52:04;;;;;;;;;;;;;;;16.63;51.82;99694.16;5072093;28;1964;-43
2023/11/11 09:54:29;;;;;;;;;;;;;;;17.50;49.26;99678.03;5068047;28;1220;-44
2023/11/11 09:56:56;;;;;;;;;;;;;;;16.83;50.97;99681.19;5082654;28;1081;-45
2023/11/11 09:59:22;;;;;;;;;;;;;;;16.50;51.71;99682.00;5078501;28;1070;-43
2023/11/11 10:01:48;;;;;;;;;;;;;;;16.38;52.04;99679.75;5062777;28;1026;-45
2023/11/11 10:04:14;;;;;;;;;;;;;;;17.21;50.40;99679.13;5085615;28;2368;-47
2023/11/11 10:06:39;;;;;;;;;;;;;;;17.09;50.58;99671.38;5080453;28;1053;-49
2023/11/11 10:09:08;;;;;;;;;;;;;;;16.61;51.82;99674.44;5083052;28;1010;-43
2023/11/11 10:11:34;;;;;;;;;;;;;;;16.45;52.33;99648.34;5079145;28;1019;-45
2023/11/11 10:14:00;;;;;;;;;;;;;;;16.30;52.53;99642.03;5096298;28;1964;-45
2023/11/11 10:16:26;;;;;;;;;;;;;;;17.48;49.81;99636.28;5096545;28;1137;-47
2023/11/11 10:18:52;;;;;;;;;;;;;;;16.92;51.10;99636.28;5095523;28;1003;-46
2023/11/11 10:21:20;;;;;;;;;;;;;;;16.55;51.86;99607.84;5082241;28;1162;-45
2023/11/11 10:23:49;;;;;;;;;;;;;;;16.38;52.25;99615.81;5096035;28;1058;-47
2023/11/11 10:26:15;;;;;;;;;;;;;;;16.26;52.92;99613.56;5078926;28;1122;-47
2023/11/11 10:28:41;;;;;;;;;;;;;;;17.58;49.62;99597.56;5076040;28;1200;-47
2023/11/11 10:31:07;;;;;;;;;;;;;;;16.96;51.06;99606.28;5093410;28;1185;-50
2023/11/11 10:33:34;;;;;;;;;;;;;;;16.58;52.12;99615.47;5090805;28;1985;-50
2023/11/11 10:36:01;;;;;;;;;;;;;;;16.39;52.63;99618.25;5090099;28;1090;-48
2023/11/11 10:38:27;;;;;;;;;;;;;;;16.24;52.74;99616.59;5087059;28;1035;-46
2023/11/11 10:40:52;;;;;;;;;;;;;;;17.31;50.37;99609.44;5082501;28;1050;-49
2023/11/11 10:43:18;;;;;;;;;;;;;;;16.99;51.18;99600.19;5095953;28;1161;-44
2023/11/11 10:45:43;;;;;;;;;;;;;;;16.59;52.27;99600.63;5065719;28;1050;-48
2023/11/11 10:48:09;;;;;;;;;;;;;;;16.41;52.43;99607.81;5095845;28;1129;-45
2023/11/11 10:50:35;;;;;;;;;;;;;;;16.23;53.08;99600.44;5073816;28;1103;-44
2023/11/11 10:53:00;;;;;;;;;;;;;;;17.17;51.06;99601.22;5086381;28;2320;-48
2023/11/11 10:55:26;;;;;;;;;;;;;;;16.94;51.45;99603.03;5064631;28;1138;-49
2023/11/11 10:57:52;;;;;;;;;;;;;;;16.55;52.29;99596.03;5073199;28;1061;-48
2023/11/11 11:00:20;;;;;;;;;;;;;;;16.75;51.94;99581.94;5095347;28;1035;-45
2023/11/11 11:02:49;;;;;;;;;;;;;;;17.17;50.84;99576.47;5084823;28;1129;-46
2023/11/11 11:05:18;;;;;;;;;;;;;;;16.63;52.00;99567.91;5092700;28;2739;-49
2023/11/11 11:07:46;;;;;;;;;;;;;;;16.41;52.53;99560.34;5067128;28;1074;-47
2023/11/11 11:10:14;;;;;;;;;;;;;;;16.32;52.76;99589.59;5085650;28;1320;-47
2023/11/11 11:12:45;;;;;;;;;;;;;;;17.27;51.02;99597.44;5057796;28;1976;-50
2023/11/11 11:15:13;;;;;;;;;;;;;;;17.31;50.36;99603.94;5088853;28;1130;-49
2023/11/11 11:17:44;;;;;;;;;;;;;;;16.73;51.91;99603.41;5088353;28;1114;-50
2023/11/11 11:20:12;;;;;;;;;;;;;;;16.49;52.60;99594.50;5075680;28;1075;-50
2023/11/11 11:22:39;;;;;;;;;;;;;;;17.35;50.58;99585.72;5078803;28;1172;-48
2023/11/11 11:25:23;;;;;;;;;;;;;;;17.01;51.42;99595.22;5082792;28;1030;-46
2023/11/11 11:28:07;;;;;;;;;;;;;;;16.60;52.33;99593.22;5092547;28;1094;-48
2023/11/11 11:30:33;;;;;;;;;;;;;;;16.40;52.79;99595.19;5076145;28;1082;-47
2023/11/11 11:32:59;;;;;;;;;;;;;;;16.28;53.11;99613.25;5075365;28;1983;-47
2023/11/11 11:35:28;;;;;;;;;;;;;;;17.37;51.06;99615.63;5078677;28;3019;-46
2023/11/11 11:37:54;;;;;;;;;;;;;;;16.90;51.84;99593.75;5058018;28;1055;-50
2023/11/11 11:40:20;;;;;;;;;;;;;;;16.55;52.78;99579.56;5075126;28;1142;-50
2023/11/11 11:42:47;;;;;;;;;;;;;;;16.36;53.09;99569.47;5077089;28;1198;-49
2023/11/11 11:45:12;;;;;;;;;;;;;;;16.48;53.06;99577.25;5081012;28;1053;-46
2023/11/11 11:47:38;;;;;;;;;;;;;;;17.42;50.66;99569.63;5075215;28;855;-50
2023/11/11 11:50:03;;;;;;;;;;;;;;;16.69;52.33;99577.69;5060272;28;1071;-42
2023/11/11 11:52:29;;;;;;;;;;;;;;;16.45;52.94;99571.53;5091489;28;1990;-48
2023/11/11 11:54:55;;;;;;;;;;;;;;;16.28;53.32;99555.66;5092935;28;1151;-46
2023/11/11 11:57:22;;;;;;;;;;;;;;;16.33;53.42;99545.41;5099134;28;1077;-46
2023/11/11 12:00:14;;;;;;;;;;;;;;;17.57;50.52;99542.91;5081634;28;905;-45
2023/11/11 12:02:40;;;;;;;;;;;;;;;16.72;52.44;99505.69;5099019;28;999;-46
2023/11/11 12:05:06;;;;;;;;;;;;;;;16.45;53.04;99483.72;5062659;28;1780;-46
2023/11/11 12:07:32;;;;;;;;;;;;;;;17.02;52.03;99486.16;5090254;28;1059;-49
2023/11/11 12:09:57;;;;;;;;;;;;;;;17.20;51.31;99479.72;5095521;28;1014;-44
2023/11/11 12:12:27;;;;;;;;;;;;;;;16.72;52.61;99472.75;5098378;28;1966;-46
2023/11/11 12:14:53;;;;;;;;;;;;;;;16.46;52.99;99488.91;5098403;28;1081;-47
2023/11/11 12:17:20;;;;;;;;;;;;;;;16.27;53.52;99482.69;5086252;28;1042;-47
2023/11/11 12:19:48;;;;;;;;;;;;;;;16.54;53.35;99481.91;5092401;28;1016;-47
2023/11/11 12:22:14;;;;;;;;;;;;;;;17.21;51.24;99472.31;5081352;28;1074;-49
2023/11/11 12:24:40;;;;;;;;;;;;;;;16.63;52.79;99462.81;5066671;28;1109;-49
2023/11/11 12:27:07;;;;;;;;;;;;;;;16.37;53.20;99450.41;5098454;28;994;-48
2023/11/11 12:29:42;;;;;;;;;;;;;;;17.37;51.04;99457.06;5091439;28;1031;-50
2023/11/11 12:32:13;;;;;;;;;;;;;;;16.82;52.30;99465.44;5078348;28;1963;-51
2023/11/11 12:34:39;;;;;;;;;;;;;;;16.50;53.04;99453.47;5074013;28;2534;-47
2023/11/11 12:37:05;;;;;;;;;;;;;;;17.45;51.00;99445.34;5078298;28;1027;-47
2023/11/11 12:39:32;;;;;;;;;;;;;;;16.95;52.06;99437.16;5080377;28;1150;-44
2023/11/11 12:41:57;;;;;;;;;;;;;;;16.59;52.95;99441.47;5078572;28;1081;-48
2023/11/11 12:44:26;;;;;;;;;;;;;;;16.40;53.39;99449.78;5077608;28;1050;-48
2023/11/11 12:46:52;;;;;;;;;;;;;;;16.29;53.54;99440.13;5083982;28;1109;-45
2023/11/11 12:49:24;;;;;;;;;;;;;;;16.11;53.83;99403.47;5097642;28;1106;-49